Share

Arbela, MO

Fort Madison Municipal (KFSW) Elev 725 ft | 40.66 °N, 91.33 °W | Change Station

Current weather conditions updated 9 minutes ago

Clear
Clear
43 °F
Feels Like 43 °F
N
0
Wind Variable Wind from North
Sunrise 6:26 AM
Sunset 7:49 PM
Moon Waning Gibbous

Tomorrow is forecast to be Much Warmer than today.

Pressure 30.29 in
Visibility 10.0 miles
Clouds Clear
Dew Point 37 °F
Humidity 81%
Rainfall 0.00 in
Snow Depth Not available.
UV 0 out of 16
Pollen 10.00 out of 12
Air Quality Not available.
Flu Activity Sporadic
METAR KFSW 180415Z AUTO 00000KT 10SM CLR 06/03 A3029 RMK AO2

More Conditions Fewer Conditions

Pressure 30.29 in
Visibility 10.0 miles
Clouds Clear
Dew Point 37 °F
Humidity 81%
Rainfall 0.00 in
Snow Depth Not available.
UV 0 out of 16
Pollen 10.00 out of 12
Air Quality Not available.
Flu Activity Sporadic
METAR KFSW 180415Z AUTO 00000KT 10SM CLR 06/03 A3029 RMK AO2

More Conditions Fewer Conditions

10-Day Forecast

Almanac

Astronomy

Apr. 17, 2014 Rise Set
Actual Time 6:26 AM CDT 7:49 PM CDT
Civil Twilight 5:58 AM CDT 8:17 PM CDT
Nautical Twilight 5:24 AM CDT 8:51 PM CDT
Astronomical Twilight 4:48 AM CDT 9:28 PM CDT
Moon 10:35 PM CDT (4/17) 7:58 AM CDT (4/17)
Length of Visible Light 14h 19m
Length of Day
13h 22m
Tomorrow will be 2m 31s longer.
Waning Gibbous, 90% of the Moon is Illuminated
Apr 18
Waning Gibbous
Apr 22
Last Quarter
Apr 29
New
May 6
First Quarter
May 14
Full

Today's Extremes

State Highs State Lows

Community

  • SUNRISE THROUGH THE TREES.
    SUNRISE THROUGH THE TREES.
  • Dog Wood Blossoms
    Dog Wood Blossoms
  • Morning Light
    Morning Light
  • New Day
    New Day
  • Lake Michigan Sunrise
    Lake Michigan Sunrise

WunderPhotos

Upload Photos

1,702,253 photos uploaded!

WunderBlogs® & News

Nearby

Snow Depth

Station Depth Elevation
No new snow has been reported.

Coastal Water Temperatures

Place Temperature
No Stations Reporting

Earthquake Activity

City Distance Mag. Time & Date
No recent earthquake activity has been reported nearby.
Minimum magnitude displayed is 2.5.

Nearby Weather Stations

There are no personal weather stations in this area.

What do you think?

We're not finished. Please let us know what you like, what you don't like, and what you are still missing.